DLH458 EDDM-KSFO
Flight info
| Callsign | DLH458 |
|---|---|
| Flight time | N/A |
| Altitude | 34000 |
| Route | INPUD2N INPUD Y102 UPALA Z109 BAMAS L604 GASKA DCT MASEK DCT SPY DCT AMGOD DCT MIMVA L602 NALAX L46 ESHIN N110 ERKIT DCT GOMUP/M082F360 DCT LIBOR DCT BERUS/N0477F360 DCT YFB/N0474F380 DCT 63N080W 61N090W 57N100W DCT POLLE/N0465F400 DCT WALSH DCT BOI DCT MRRLO BDEGA4 |
| Aircraft | A333/H-SDE3GHIJ2J3J5M1RVWXY/LB2D1 |
Departure
| Time | N/A |
|---|---|
| Airport | Munich Airport (EDDM) |
Arrival
| Time | 2026-05-08 03:08 |
|---|---|
| Airport | San Francisco International Airport (KSFO) |
| Time | Latitude | Longitude | Altitude | Speed | Heading |
|---|---|---|---|---|---|
| 2026-05-07 21:06 | 61.99216 | -57.84303 | 33927 ft | 410 kts | 246° |
| 2026-05-07 21:06 | 61.97411 | -57.95739 | 33936 ft | 414 kts | 252° |
| 2026-05-07 21:06 | 61.97186 | -58.01878 | 33923 ft | 427 kts | 268° |
| 2026-05-07 21:07 | 61.97866 | -58.08058 | 33947 ft | 442 kts | 284° |
| 2026-05-07 21:07 | 61.99416 | -58.13882 | 33963 ft | 458 kts | 296° |
| 2026-05-07 21:07 | 62.01044 | -58.19616 | 33906 ft | 455 kts | 290° |
| 2026-05-07 21:08 | 62.03919 | -58.31527 | 33888 ft | 453 kts | 289° |
| 2026-05-07 21:08 | 62.06672 | -58.43500 | 33912 ft | 453 kts | 288° |
| 2026-05-07 21:09 | 62.09403 | -58.55516 | 33910 ft | 451 kts | 288° |
| 2026-05-07 21:09 | 62.12127 | -58.67590 | 33916 ft | 453 kts | 288° |
| 2026-05-07 21:10 | 62.14827 | -58.79617 | 33915 ft | 451 kts | 288° |
| 2026-05-07 21:10 | 62.17526 | -58.91714 | 33906 ft | 453 kts | 288° |
| 2026-05-07 21:11 | 62.20222 | -59.03858 | 33910 ft | 455 kts | 288° |
| 2026-05-07 21:11 | 62.24251 | -59.22144 | 33917 ft | 456 kts | 288° |
| 2026-05-07 21:12 | 62.26940 | -59.34430 | 33922 ft | 457 kts | 288° |
| 2026-05-07 21:12 | 62.29615 | -59.46739 | 33945 ft | 459 kts | 288° |
| 2026-05-07 21:13 | 62.32290 | -59.59110 | 33896 ft | 459 kts | 288° |
| 2026-05-07 21:13 | 62.34965 | -59.71552 | 33950 ft | 460 kts | 287° |
| 2026-05-07 21:14 | 62.37642 | -59.84079 | 33895 ft | 460 kts | 287° |
| 2026-05-07 21:14 | 62.40297 | -59.96580 | 33891 ft | 463 kts | 288° |
| 2026-05-07 21:15 | 62.42953 | -60.09164 | 33917 ft | 463 kts | 288° |
| 2026-05-07 21:15 | 62.45602 | -60.21792 | 33906 ft | 465 kts | 288° |
| 2026-05-07 21:16 | 62.48251 | -60.34486 | 33906 ft | 465 kts | 288° |
| 2026-05-07 21:16 | 62.50896 | -60.47252 | 33936 ft | 468 kts | 288° |
| 2026-05-07 21:17 | 62.53526 | -60.60016 | 33903 ft | 467 kts | 288° |
| 2026-05-07 21:17 | 62.56162 | -60.72893 | 33909 ft | 469 kts | 288° |
| 2026-05-07 21:18 | 62.58776 | -60.85740 | 33932 ft | 470 kts | 288° |
| 2026-05-07 21:18 | 62.61394 | -60.98692 | 33908 ft | 470 kts | 288° |
| 2026-05-07 21:19 | 62.63981 | -61.11568 | 33902 ft | 470 kts | 288° |
| 2026-05-07 21:19 | 62.66586 | -61.24612 | 33898 ft | 472 kts | 288° |
| 2026-05-07 21:20 | 62.69170 | -61.37647 | 33888 ft | 472 kts | 288° |
| 2026-05-07 21:20 | 62.71740 | -61.50684 | 33891 ft | 472 kts | 288° |
| 2026-05-07 21:21 | 62.74301 | -61.63769 | 33875 ft | 473 kts | 288° |
| 2026-05-07 21:21 | 62.76864 | -61.76944 | 33893 ft | 474 kts | 287° |
| 2026-05-07 21:22 | 62.79431 | -61.90227 | 33869 ft | 475 kts | 288° |
| 2026-05-07 21:22 | 62.81979 | -62.03497 | 33870 ft | 477 kts | 288° |
| 2026-05-07 21:23 | 62.84518 | -62.16809 | 33869 ft | 475 kts | 288° |
| 2026-05-07 21:23 | 62.87030 | -62.30074 | 33879 ft | 476 kts | 288° |
| 2026-05-07 21:24 | 62.89549 | -62.43458 | 33860 ft | 476 kts | 288° |
| 2026-05-07 21:24 | 62.92056 | -62.56870 | 33881 ft | 476 kts | 288° |
| 2026-05-07 21:25 | 62.94546 | -62.70287 | 33899 ft | 477 kts | 287° |
| 2026-05-07 21:25 | 62.97012 | -62.83657 | 33893 ft | 477 kts | 287° |
| 2026-05-07 21:26 | 62.99488 | -62.97181 | 33882 ft | 478 kts | 287° |
| 2026-05-07 21:26 | 63.01721 | -63.10894 | 33874 ft | 477 kts | 285° |
| 2026-05-07 21:27 | 63.03891 | -63.24698 | 33883 ft | 478 kts | 285° |
| 2026-05-07 21:27 | 63.06039 | -63.38479 | 33884 ft | 479 kts | 284° |
| 2026-05-07 21:28 | 63.08176 | -63.52298 | 33870 ft | 479 kts | 285° |
| 2026-05-07 21:28 | 63.10307 | -63.66193 | 33875 ft | 480 kts | 284° |
| 2026-05-07 21:29 | 63.12434 | -63.80166 | 33872 ft | 480 kts | 284° |
| 2026-05-07 21:29 | 63.14529 | -63.94033 | 33878 ft | 482 kts | 284° |
| 2026-05-07 21:30 | 63.16631 | -64.08058 | 33868 ft | 482 kts | 284° |
| 2026-05-07 21:30 | 63.18711 | -64.22060 | 33874 ft | 483 kts | 284° |
| 2026-05-07 21:31 | 63.20791 | -64.36173 | 33871 ft | 483 kts | 284° |
| 2026-05-07 21:31 | 63.22851 | -64.50259 | 33868 ft | 483 kts | 284° |
| 2026-05-07 21:32 | 63.24895 | -64.64350 | 33866 ft | 483 kts | 285° |
| 2026-05-07 21:32 | 63.26940 | -64.78572 | 33863 ft | 484 kts | 284° |
| 2026-05-07 21:33 | 63.28962 | -64.92744 | 33853 ft | 484 kts | 284° |
| 2026-05-07 21:33 | 63.30975 | -65.06976 | 33847 ft | 485 kts | 284° |
| 2026-05-07 21:34 | 63.32968 | -65.21185 | 33799 ft | 485 kts | 284° |
| 2026-05-07 21:34 | 63.34961 | -65.35518 | 33780 ft | 485 kts | 284° |
| 2026-05-07 21:35 | 63.36940 | -65.49873 | 33797 ft | 486 kts | 284° |
| 2026-05-07 21:35 | 63.38900 | -65.64223 | 33770 ft | 487 kts | 284° |
| 2026-05-07 21:36 | 63.40850 | -65.78608 | 33744 ft | 486 kts | 283° |
| 2026-05-07 21:36 | 63.42788 | -65.93041 | 33755 ft | 487 kts | 283° |
| 2026-05-07 21:37 | 63.44709 | -66.07480 | 33755 ft | 488 kts | 283° |
| 2026-05-07 21:37 | 63.46617 | -66.21943 | 33740 ft | 489 kts | 283° |
| 2026-05-07 21:38 | 63.48526 | -66.36544 | 33727 ft | 489 kts | 283° |
| 2026-05-07 21:38 | 63.50401 | -66.51026 | 33727 ft | 489 kts | 284° |
| 2026-05-07 21:39 | 63.52273 | -66.65609 | 33713 ft | 489 kts | 283° |
| 2026-05-07 21:39 | 63.54136 | -66.80263 | 33706 ft | 489 kts | 283° |
| 2026-05-07 21:40 | 63.55978 | -66.94873 | 33701 ft | 490 kts | 283° |
| 2026-05-07 21:40 | 63.57802 | -67.09493 | 33709 ft | 490 kts | 283° |
| 2026-05-07 21:41 | 63.59622 | -67.24212 | 33721 ft | 491 kts | 283° |
| 2026-05-07 21:41 | 63.61430 | -67.38985 | 33861 ft | 492 kts | 283° |
| 2026-05-07 21:42 | 63.62329 | -67.46371 | 33976 ft | 493 kts | 283° |
| 2026-05-07 21:42 | 63.63232 | -67.53840 | 34085 ft | 493 kts | 283° |
| 2026-05-07 21:42 | 63.64123 | -67.61241 | 34195 ft | 494 kts | 283° |
| 2026-05-07 21:42 | 63.65014 | -67.68685 | 34301 ft | 494 kts | 282° |
| 2026-05-07 21:43 | 63.65904 | -67.76150 | 34410 ft | 493 kts | 283° |
| 2026-05-07 21:43 | 63.66777 | -67.83511 | 34519 ft | 493 kts | 282° |
| 2026-05-07 21:43 | 63.67654 | -67.90944 | 34623 ft | 493 kts | 283° |
| 2026-05-07 21:43 | 63.68537 | -67.98456 | 34729 ft | 493 kts | 283° |
| 2026-05-07 21:44 | 63.69405 | -68.05885 | 34832 ft | 493 kts | 283° |
| 2026-05-07 21:44 | 63.70276 | -68.13387 | 34940 ft | 493 kts | 283° |
| 2026-05-07 21:44 | 63.71137 | -68.20818 | 35045 ft | 493 kts | 283° |
| 2026-05-07 21:44 | 63.71986 | -68.28204 | 35150 ft | 492 kts | 283° |
| 2026-05-07 21:45 | 63.72844 | -68.35696 | 35257 ft | 492 kts | 283° |
| 2026-05-07 21:45 | 63.73668 | -68.43095 | 35361 ft | 491 kts | 280° |
| 2026-05-07 21:45 | 63.73945 | -68.50722 | 35451 ft | 486 kts | 267° |
| 2026-05-07 21:45 | 63.73859 | -68.58221 | 35582 ft | 485 kts | 266° |
| 2026-05-07 21:46 | 63.73709 | -68.65868 | 35690 ft | 485 kts | 265° |
| 2026-05-07 21:46 | 63.73534 | -68.73455 | 35763 ft | 486 kts | 265° |
| 2026-05-07 21:46 | 63.73151 | -68.88686 | 35753 ft | 491 kts | 264° |
| 2026-05-07 21:47 | 63.72745 | -69.04038 | 35739 ft | 494 kts | 264° |
| 2026-05-07 21:47 | 63.72318 | -69.19507 | 35722 ft | 497 kts | 264° |
| 2026-05-07 21:48 | 63.71873 | -69.35041 | 35703 ft | 499 kts | 264° |
| 2026-05-07 21:48 | 63.71412 | -69.50561 | 35710 ft | 500 kts | 265° |
| 2026-05-07 21:49 | 63.70931 | -69.66167 | 35690 ft | 501 kts | 264° |
| 2026-05-07 21:49 | 63.70431 | -69.81820 | 35672 ft | 501 kts | 264° |
| 2026-05-07 21:50 | 63.69913 | -69.97489 | 35666 ft | 502 kts | 264° |
| 2026-05-07 21:50 | 63.69380 | -70.13123 | 35661 ft | 502 kts | 264° |
| 2026-05-07 21:51 | 63.68832 | -70.28688 | 35659 ft | 502 kts | 264° |
| 2026-05-07 21:51 | 63.68264 | -70.44323 | 35665 ft | 502 kts | 264° |
| 2026-05-07 21:52 | 63.67682 | -70.59885 | 35676 ft | 502 kts | 264° |
| 2026-05-07 21:52 | 63.67079 | -70.75530 | 35684 ft | 502 kts | 263° |
| 2026-05-07 21:53 | 63.66464 | -70.91070 | 35687 ft | 503 kts | 263° |
| 2026-05-07 21:53 | 63.65826 | -71.06738 | 35692 ft | 503 kts | 263° |
| 2026-05-07 21:54 | 63.65174 | -71.22336 | 35692 ft | 503 kts | 263° |
| 2026-05-07 21:54 | 63.64509 | -71.37838 | 35699 ft | 503 kts | 263° |
| 2026-05-07 21:55 | 63.63823 | -71.53418 | 35711 ft | 503 kts | 263° |
| 2026-05-07 21:55 | 63.63119 | -71.69038 | 35696 ft | 503 kts | 262° |
| 2026-05-07 21:56 | 63.62398 | -71.84625 | 35695 ft | 504 kts | 262° |
| 2026-05-07 21:56 | 63.61656 | -72.00314 | 35691 ft | 504 kts | 262° |
| 2026-05-07 21:57 | 63.60902 | -72.15877 | 35692 ft | 504 kts | 262° |
| 2026-05-07 21:57 | 63.60127 | -72.31517 | 35689 ft | 505 kts | 262° |
| 2026-05-07 21:58 | 63.59340 | -72.47070 | 35684 ft | 505 kts | 262° |
| 2026-05-07 21:58 | 63.58535 | -72.62611 | 35690 ft | 505 kts | 262° |
| 2026-05-07 21:59 | 63.57711 | -72.78184 | 35686 ft | 505 kts | 261° |
| 2026-05-07 21:59 | 63.56868 | -72.93787 | 35684 ft | 505 kts | 262° |
| 2026-05-07 22:00 | 63.56009 | -73.09384 | 35678 ft | 505 kts | 261° |
| 2026-05-07 22:00 | 63.55138 | -73.24886 | 35672 ft | 505 kts | 262° |
| 2026-05-07 22:01 | 63.54244 | -73.40462 | 35661 ft | 506 kts | 261° |
| 2026-05-07 22:01 | 63.53337 | -73.55971 | 35652 ft | 506 kts | 261° |
| 2026-05-07 22:02 | 63.52409 | -73.71540 | 35650 ft | 506 kts | 261° |
| 2026-05-07 22:02 | 63.51467 | -73.87060 | 35642 ft | 506 kts | 261° |
| 2026-05-07 22:03 | 63.50503 | -74.02652 | 35636 ft | 506 kts | 261° |
| 2026-05-07 22:03 | 63.49530 | -74.18098 | 35627 ft | 506 kts | 261° |
| 2026-05-07 22:04 | 63.48531 | -74.33699 | 35630 ft | 506 kts | 261° |
| 2026-05-07 22:04 | 63.47522 | -74.49164 | 35629 ft | 506 kts | 261° |
| 2026-05-07 22:05 | 63.46491 | -74.64704 | 35623 ft | 506 kts | 261° |
| 2026-05-07 22:05 | 63.45441 | -74.80273 | 35608 ft | 507 kts | 260° |
| 2026-05-07 22:06 | 63.44382 | -74.95707 | 35613 ft | 507 kts | 260° |
| 2026-05-07 22:06 | 63.43301 | -75.11215 | 35613 ft | 507 kts | 260° |
| 2026-05-07 22:07 | 63.42205 | -75.26675 | 35603 ft | 507 kts | 260° |
| 2026-05-07 22:07 | 63.41090 | -75.42150 | 35602 ft | 507 kts | 260° |
| 2026-05-07 22:08 | 63.39961 | -75.57591 | 35599 ft | 507 kts | 260° |
| 2026-05-07 22:08 | 63.38815 | -75.73030 | 35592 ft | 508 kts | 259° |
| 2026-05-07 22:09 | 63.37644 | -75.88553 | 35588 ft | 508 kts | 259° |
| 2026-05-07 22:09 | 63.36461 | -76.03992 | 35587 ft | 508 kts | 259° |
| 2026-05-07 22:10 | 63.35260 | -76.19451 | 35586 ft | 509 kts | 259° |
| 2026-05-07 22:10 | 63.34044 | -76.34869 | 35584 ft | 509 kts | 259° |
| 2026-05-07 22:11 | 63.32801 | -76.50402 | 35578 ft | 509 kts | 259° |
| 2026-05-07 22:11 | 63.31546 | -76.65871 | 35569 ft | 509 kts | 258° |
| 2026-05-07 22:12 | 63.30276 | -76.81301 | 35567 ft | 509 kts | 258° |
| 2026-05-07 22:12 | 63.28991 | -76.96693 | 35563 ft | 510 kts | 258° |
| 2026-05-07 22:13 | 63.27688 | -77.12086 | 35558 ft | 510 kts | 258° |
| 2026-05-07 22:13 | 63.26369 | -77.27462 | 35553 ft | 510 kts | 258° |
| 2026-05-07 22:14 | 63.25032 | -77.42841 | 35555 ft | 510 kts | 258° |
| 2026-05-07 22:14 | 63.23680 | -77.58198 | 35554 ft | 510 kts | 258° |
| 2026-05-07 22:15 | 63.22302 | -77.73629 | 35535 ft | 511 kts | 257° |
| 2026-05-07 22:15 | 63.20919 | -77.88924 | 35534 ft | 510 kts | 257° |
| 2026-05-07 22:16 | 63.19507 | -78.04336 | 35530 ft | 511 kts | 257° |
| 2026-05-07 22:16 | 63.18086 | -78.19662 | 35534 ft | 511 kts | 257° |
| 2026-05-07 22:17 | 63.16648 | -78.34965 | 35536 ft | 511 kts | 258° |
| 2026-05-07 22:17 | 63.15189 | -78.50300 | 35538 ft | 511 kts | 258° |
| 2026-05-07 22:18 | 63.12969 | -78.73297 | 35524 ft | 512 kts | 257° |
| 2026-05-07 22:19 | 63.11462 | -78.88662 | 35527 ft | 512 kts | 257° |
| 2026-05-07 22:19 | 63.09949 | -79.03918 | 35517 ft | 512 kts | 257° |
| 2026-05-07 22:20 | 63.08415 | -79.19188 | 35519 ft | 512 kts | 257° |
| 2026-05-07 22:20 | 63.06865 | -79.34451 | 35519 ft | 512 kts | 257° |
| 2026-05-07 22:21 | 63.05296 | -79.49712 | 35520 ft | 513 kts | 257° |
| 2026-05-07 22:21 | 63.03718 | -79.64892 | 35513 ft | 513 kts | 257° |
| 2026-05-07 22:22 | 63.02111 | -79.80177 | 35501 ft | 513 kts | 256° |
| 2026-05-07 22:22 | 63.00487 | -79.95438 | 35494 ft | 513 kts | 256° |
| 2026-05-07 22:22 | 62.99315 | -80.02764 | 35476 ft | 511 kts | 244° |
| 2026-05-07 22:23 | 62.98116 | -80.10080 | 35496 ft | 510 kts | 256° |
| 2026-05-07 22:23 | 62.96133 | -80.24909 | 35497 ft | 511 kts | 251° |
| 2026-05-07 22:24 | 62.93866 | -80.39671 | 35501 ft | 511 kts | 251° |
| 2026-05-07 22:24 | 62.91571 | -80.54314 | 35495 ft | 512 kts | 251° |
| 2026-05-07 22:25 | 62.89246 | -80.69009 | 35498 ft | 512 kts | 250° |
| 2026-05-07 22:25 | 62.86885 | -80.83813 | 35484 ft | 513 kts | 250° |
| 2026-05-07 22:26 | 62.84538 | -80.98408 | 35488 ft | 512 kts | 250° |
| 2026-05-07 22:26 | 62.82163 | -81.13063 | 35483 ft | 512 kts | 250° |
| 2026-05-07 22:27 | 62.79782 | -81.27638 | 35480 ft | 512 kts | 250° |
| 2026-05-07 22:27 | 62.77377 | -81.42242 | 35482 ft | 512 kts | 250° |
| 2026-05-07 22:28 | 62.74960 | -81.56797 | 35481 ft | 513 kts | 250° |
| 2026-05-07 22:28 | 62.72543 | -81.71252 | 35477 ft | 513 kts | 249° |
| 2026-05-07 22:29 | 62.70085 | -81.85830 | 35475 ft | 513 kts | 249° |
| 2026-05-07 22:29 | 62.67617 | -82.00349 | 35465 ft | 513 kts | 249° |
| 2026-05-07 22:30 | 62.65143 | -82.14803 | 35462 ft | 513 kts | 249° |
| 2026-05-07 22:30 | 62.62656 | -82.29214 | 35466 ft | 513 kts | 249° |
| 2026-05-07 22:31 | 62.60143 | -82.43668 | 35463 ft | 513 kts | 249° |
| 2026-05-07 22:31 | 62.57618 | -82.58078 | 35459 ft | 513 kts | 249° |
| 2026-05-07 22:32 | 62.55082 | -82.72450 | 35465 ft | 513 kts | 248° |
| 2026-05-07 22:32 | 62.52519 | -82.86855 | 35467 ft | 513 kts | 248° |
| 2026-05-07 22:33 | 62.49960 | -83.01136 | 35466 ft | 513 kts | 248° |
| 2026-05-07 22:33 | 62.47377 | -83.15443 | 35463 ft | 513 kts | 248° |
| 2026-05-07 22:34 | 62.44772 | -83.29771 | 35461 ft | 514 kts | 248° |
| 2026-05-07 22:34 | 62.42160 | -83.44031 | 35464 ft | 514 kts | 248° |
| 2026-05-07 22:35 | 62.39542 | -83.58217 | 35465 ft | 514 kts | 248° |
| 2026-05-07 22:35 | 62.36884 | -83.72517 | 35455 ft | 514 kts | 248° |
| 2026-05-07 22:36 | 62.34237 | -83.86655 | 35455 ft | 514 kts | 248° |
| 2026-05-07 22:36 | 62.31564 | -84.00827 | 35460 ft | 514 kts | 248° |
| 2026-05-07 22:37 | 62.28869 | -84.15020 | 35464 ft | 514 kts | 248° |
| 2026-05-07 22:37 | 62.26168 | -84.29133 | 35460 ft | 514 kts | 248° |
| 2026-05-07 22:38 | 62.23447 | -84.43259 | 35458 ft | 514 kts | 248° |
| 2026-05-07 22:38 | 62.20709 | -84.57369 | 35456 ft | 514 kts | 248° |
| 2026-05-07 22:39 | 62.17960 | -84.71441 | 35451 ft | 514 kts | 246° |
| 2026-05-07 22:39 | 62.15214 | -84.85390 | 35459 ft | 514 kts | 247° |
| 2026-05-07 22:40 | 62.12437 | -84.99412 | 35453 ft | 515 kts | 247° |
| 2026-05-07 22:40 | 62.09636 | -85.13453 | 35454 ft | 515 kts | 247° |
| 2026-05-07 22:41 | 62.06826 | -85.27443 | 35457 ft | 515 kts | 247° |
| 2026-05-07 22:41 | 62.04013 | -85.41344 | 35469 ft | 515 kts | 247° |
| 2026-05-07 22:42 | 62.01170 | -85.55305 | 35469 ft | 515 kts | 247° |
| 2026-05-07 22:42 | 61.98318 | -85.69217 | 35470 ft | 515 kts | 246° |
| 2026-05-07 22:43 | 61.95461 | -85.83057 | 35462 ft | 515 kts | 246° |
| 2026-05-07 22:43 | 61.92577 | -85.96935 | 35467 ft | 515 kts | 246° |
| 2026-05-07 22:44 | 61.89671 | -86.10820 | 35470 ft | 515 kts | 246° |
| 2026-05-07 22:44 | 61.86764 | -86.24624 | 35458 ft | 516 kts | 246° |
| 2026-05-07 22:45 | 61.83846 | -86.38387 | 35456 ft | 515 kts | 246° |
| 2026-05-07 22:45 | 61.80908 | -86.52151 | 35464 ft | 515 kts | 246° |
| 2026-05-07 22:46 | 61.77967 | -86.65837 | 35467 ft | 515 kts | 245° |
| 2026-05-07 22:46 | 61.75004 | -86.79542 | 35464 ft | 515 kts | 245° |
| 2026-05-07 22:47 | 61.72021 | -86.93246 | 35456 ft | 516 kts | 245° |
| 2026-05-07 22:47 | 61.69090 | -87.06625 | 35460 ft | 515 kts | 245° |
| 2026-05-07 22:48 | 61.66097 | -87.20198 | 35459 ft | 515 kts | 245° |
| 2026-05-07 22:48 | 61.63073 | -87.33827 | 35467 ft | 515 kts | 245° |
| 2026-05-07 22:49 | 61.60042 | -87.47401 | 35468 ft | 515 kts | 245° |
| 2026-05-07 22:49 | 61.57010 | -87.60889 | 35469 ft | 516 kts | 245° |
| 2026-05-07 22:50 | 61.53936 | -87.74478 | 35466 ft | 516 kts | 245° |
| 2026-05-07 22:50 | 61.50874 | -87.87929 | 35468 ft | 515 kts | 245° |
| 2026-05-07 22:51 | 61.47780 | -88.01441 | 35469 ft | 516 kts | 245° |
| 2026-05-07 22:51 | 61.44686 | -88.14863 | 35470 ft | 516 kts | 245° |
| 2026-05-07 22:52 | 61.41581 | -88.28247 | 35473 ft | 516 kts | 245° |
| 2026-05-07 22:52 | 61.38458 | -88.41630 | 35478 ft | 516 kts | 245° |
| 2026-05-07 22:53 | 61.35304 | -88.55057 | 35477 ft | 516 kts | 245° |
| 2026-05-07 22:53 | 61.32153 | -88.68394 | 35483 ft | 516 kts | 244° |
| 2026-05-07 22:54 | 61.28992 | -88.81688 | 35479 ft | 516 kts | 244° |
| 2026-05-07 22:54 | 61.25814 | -88.94974 | 35484 ft | 516 kts | 244° |
| 2026-05-07 22:55 | 61.22622 | -89.08235 | 35483 ft | 516 kts | 244° |
| 2026-05-07 22:55 | 61.19409 | -89.21506 | 35486 ft | 516 kts | 244° |
| 2026-05-07 22:56 | 61.16185 | -89.34738 | 35491 ft | 516 kts | 244° |
| 2026-05-07 22:56 | 61.12956 | -89.47909 | 35499 ft | 516 kts | 244° |
| 2026-05-07 22:57 | 61.09701 | -89.61113 | 35495 ft | 517 kts | 244° |
| 2026-05-07 22:57 | 61.06440 | -89.74260 | 35493 ft | 517 kts | 244° |
| 2026-05-07 22:58 | 61.03180 | -89.87322 | 35497 ft | 517 kts | 244° |
| 2026-05-07 22:58 | 60.99756 | -90.00279 | 35478 ft | 518 kts | 234° |
| 2026-05-07 22:59 | 60.95835 | -90.12599 | 35521 ft | 515 kts | 239° |
| 2026-05-07 22:59 | 60.91962 | -90.24904 | 35512 ft | 516 kts | 238° |
| 2026-05-07 23:00 | 60.87992 | -90.37158 | 35517 ft | 517 kts | 237° |
| 2026-05-07 23:00 | 60.84009 | -90.49357 | 35520 ft | 517 kts | 237° |
| 2026-05-07 23:01 | 60.80024 | -90.61498 | 35523 ft | 517 kts | 237° |
| 2026-05-07 23:01 | 60.76015 | -90.73644 | 35513 ft | 518 kts | 237° |
| 2026-05-07 23:02 | 60.71974 | -90.85829 | 35510 ft | 518 kts | 237° |
| 2026-05-07 23:02 | 60.67940 | -90.97927 | 35510 ft | 518 kts | 237° |
| 2026-05-07 23:03 | 60.63910 | -91.09950 | 35519 ft | 518 kts | 237° |
| 2026-05-07 23:03 | 60.59868 | -91.21948 | 35527 ft | 517 kts | 237° |
| 2026-05-07 23:04 | 60.55784 | -91.34004 | 35538 ft | 518 kts | 237° |
| 2026-05-07 23:04 | 60.51710 | -91.45972 | 35543 ft | 518 kts | 237° |
| 2026-05-07 23:05 | 60.47625 | -91.57910 | 35544 ft | 518 kts | 237° |
| 2026-05-07 23:05 | 60.43532 | -91.69812 | 35543 ft | 518 kts | 236° |
| 2026-05-07 23:06 | 60.39427 | -91.81685 | 35542 ft | 518 kts | 236° |
| 2026-05-07 23:06 | 60.35306 | -91.93543 | 35539 ft | 518 kts | 236° |
| 2026-05-07 23:07 | 60.31164 | -92.05405 | 35544 ft | 518 kts | 236° |
| 2026-05-07 23:07 | 60.27025 | -92.17197 | 35553 ft | 518 kts | 236° |
| 2026-05-07 23:08 | 60.22880 | -92.28944 | 35565 ft | 517 kts | 236° |
| 2026-05-07 23:08 | 60.18736 | -92.40633 | 35563 ft | 517 kts | 236° |
| 2026-05-07 23:09 | 60.14571 | -92.52323 | 35566 ft | 517 kts | 236° |
| 2026-05-07 23:09 | 60.10379 | -92.64024 | 35570 ft | 517 kts | 237° |
| 2026-05-07 23:10 | 60.06201 | -92.75634 | 35571 ft | 517 kts | 236° |
| 2026-05-07 23:10 | 60.01993 | -92.87268 | 35583 ft | 517 kts | 236° |
| 2026-05-07 23:11 | 59.97801 | -92.98800 | 35595 ft | 517 kts | 236° |
| 2026-05-07 23:11 | 59.93577 | -93.10362 | 35601 ft | 517 kts | 236° |
| 2026-05-07 23:12 | 59.89345 | -93.21890 | 35606 ft | 517 kts | 236° |
| 2026-05-07 23:12 | 59.85115 | -93.33353 | 35606 ft | 516 kts | 236° |
| 2026-05-07 23:13 | 59.80877 | -93.44785 | 35609 ft | 516 kts | 236° |
| 2026-05-07 23:13 | 59.76639 | -93.56162 | 35606 ft | 516 kts | 236° |
| 2026-05-07 23:14 | 59.72357 | -93.67600 | 35697 ft | 513 kts | 235° |
| 2026-05-07 23:14 | 59.70242 | -93.73231 | 35799 ft | 512 kts | 235° |
| 2026-05-07 23:14 | 59.68100 | -93.78914 | 35907 ft | 510 kts | 235° |
| 2026-05-07 23:14 | 59.65982 | -93.84526 | 36010 ft | 508 kts | 235° |
| 2026-05-07 23:15 | 59.63895 | -93.90037 | 36114 ft | 507 kts | 235° |
| 2026-05-07 23:15 | 59.61796 | -93.95573 | 36219 ft | 506 kts | 235° |
| 2026-05-07 23:15 | 59.59694 | -94.01101 | 36318 ft | 504 kts | 235° |
| 2026-05-07 23:15 | 59.57590 | -94.06621 | 36421 ft | 503 kts | 235° |
| 2026-05-07 23:16 | 59.55489 | -94.12121 | 36522 ft | 502 kts | 235° |
| 2026-05-07 23:16 | 59.51309 | -94.23025 | 36726 ft | 500 kts | 235° |
| 2026-05-07 23:17 | 59.47149 | -94.33825 | 36925 ft | 498 kts | 235° |
| 2026-05-07 23:17 | 59.45069 | -94.39206 | 37029 ft | 497 kts | 235° |
| 2026-05-07 23:17 | 59.42980 | -94.44601 | 37134 ft | 496 kts | 235° |
| 2026-05-07 23:17 | 59.40897 | -94.49966 | 37247 ft | 495 kts | 235° |
| 2026-05-07 23:18 | 59.38841 | -94.55249 | 37373 ft | 494 kts | 235° |
| 2026-05-07 23:18 | 59.36763 | -94.60576 | 37505 ft | 493 kts | 235° |
| 2026-05-07 23:18 | 59.34693 | -94.65874 | 37633 ft | 492 kts | 234° |
| 2026-05-07 23:19 | 59.30502 | -94.76559 | 37665 ft | 496 kts | 234° |
| 2026-05-07 23:19 | 59.26316 | -94.87181 | 37665 ft | 499 kts | 234° |
| 2026-05-07 23:20 | 59.22091 | -94.97855 | 37673 ft | 500 kts | 234° |
| 2026-05-07 23:20 | 59.17836 | -95.08556 | 37675 ft | 502 kts | 234° |
| 2026-05-07 23:21 | 59.13562 | -95.19255 | 37676 ft | 503 kts | 234° |
| 2026-05-07 23:21 | 59.09273 | -95.29945 | 37678 ft | 503 kts | 234° |
| 2026-05-07 23:22 | 59.04957 | -95.40654 | 37683 ft | 503 kts | 234° |
| 2026-05-07 23:22 | 59.00653 | -95.51284 | 37689 ft | 503 kts | 234° |
| 2026-05-07 23:23 | 58.96347 | -95.61867 | 37698 ft | 503 kts | 234° |
| 2026-05-07 23:23 | 58.92006 | -95.72490 | 37698 ft | 503 kts | 233° |
| 2026-05-07 23:24 | 58.87689 | -95.83011 | 37694 ft | 503 kts | 233° |
| 2026-05-07 23:24 | 58.83338 | -95.93563 | 37691 ft | 503 kts | 233° |
| 2026-05-07 23:25 | 58.78982 | -96.04080 | 37692 ft | 502 kts | 233° |
| 2026-05-07 23:25 | 58.74671 | -96.14445 | 37701 ft | 501 kts | 233° |
| 2026-05-07 23:26 | 58.70313 | -96.24874 | 37698 ft | 501 kts | 233° |
| 2026-05-07 23:26 | 58.65943 | -96.35288 | 37699 ft | 501 kts | 233° |
| 2026-05-07 23:27 | 58.59381 | -96.50836 | 37704 ft | 501 kts | 233° |
| 2026-05-07 23:27 | 58.55035 | -96.61079 | 37699 ft | 501 kts | 233° |
| 2026-05-07 23:28 | 58.50617 | -96.71445 | 37711 ft | 501 kts | 232° |
| 2026-05-07 23:28 | 58.46237 | -96.81676 | 37713 ft | 500 kts | 232° |
| 2026-05-07 23:29 | 58.41833 | -96.91921 | 37724 ft | 501 kts | 232° |
| 2026-05-07 23:29 | 58.37423 | -97.02135 | 37716 ft | 501 kts | 232° |
| 2026-05-07 23:30 | 58.33012 | -97.12302 | 37718 ft | 501 kts | 232° |
| 2026-05-07 23:30 | 58.28571 | -97.22499 | 37717 ft | 501 kts | 233° |
| 2026-05-07 23:31 | 58.24153 | -97.32600 | 37719 ft | 501 kts | 233° |
| 2026-05-07 23:31 | 58.19717 | -97.42696 | 37717 ft | 501 kts | 233° |
| 2026-05-07 23:32 | 58.15260 | -97.52795 | 37718 ft | 500 kts | 233° |
| 2026-05-07 23:32 | 58.10817 | -97.62821 | 37719 ft | 500 kts | 233° |
| 2026-05-07 23:33 | 58.06354 | -97.72851 | 37720 ft | 500 kts | 232° |
| 2026-05-07 23:33 | 58.01906 | -97.82806 | 37720 ft | 500 kts | 232° |
| 2026-05-07 23:34 | 57.97422 | -97.92796 | 37735 ft | 500 kts | 232° |
| 2026-05-07 23:34 | 57.92943 | -98.02733 | 37735 ft | 500 kts | 232° |
| 2026-05-07 23:35 | 57.88443 | -98.12676 | 37740 ft | 500 kts | 232° |
| 2026-05-07 23:35 | 57.83939 | -98.22585 | 37745 ft | 500 kts | 232° |
| 2026-05-07 23:36 | 57.79416 | -98.32496 | 37755 ft | 500 kts | 232° |
| 2026-05-07 23:36 | 57.74929 | -98.42281 | 37760 ft | 500 kts | 232° |
| 2026-05-07 23:37 | 57.70406 | -98.52109 | 37765 ft | 500 kts | 232° |
| 2026-05-07 23:37 | 57.65891 | -98.61875 | 37773 ft | 500 kts | 232° |
| 2026-05-07 23:38 | 57.61349 | -98.71662 | 37773 ft | 500 kts | 232° |
| 2026-05-07 23:38 | 57.56780 | -98.81465 | 37773 ft | 501 kts | 232° |
| 2026-05-07 23:39 | 57.52237 | -98.91174 | 37782 ft | 501 kts | 232° |
| 2026-05-07 23:39 | 57.47664 | -99.00902 | 37780 ft | 501 kts | 232° |
| 2026-05-07 23:40 | 57.43096 | -99.10582 | 37775 ft | 502 kts | 232° |
| 2026-05-07 23:40 | 57.38511 | -99.20261 | 37776 ft | 502 kts | 232° |
| 2026-05-07 23:41 | 57.33916 | -99.29916 | 37780 ft | 501 kts | 232° |
| 2026-05-07 23:41 | 57.29324 | -99.39527 | 37782 ft | 502 kts | 232° |
| 2026-05-07 23:42 | 57.24713 | -99.49140 | 37787 ft | 502 kts | 232° |
| 2026-05-07 23:42 | 57.20094 | -99.58727 | 37788 ft | 502 kts | 232° |
| 2026-05-07 23:43 | 57.15448 | -99.68333 | 37788 ft | 503 kts | 231° |
| 2026-05-07 23:43 | 57.10806 | -99.77891 | 37782 ft | 503 kts | 231° |
| 2026-05-07 23:44 | 57.06181 | -99.87376 | 37781 ft | 502 kts | 231° |
| 2026-05-07 23:44 | 57.01521 | -99.96894 | 37781 ft | 502 kts | 231° |
| 2026-05-07 23:45 | 56.96699 | -100.06072 | 37809 ft | 502 kts | 230° |
| 2026-05-07 23:45 | 56.91854 | -100.15212 | 37822 ft | 504 kts | 229° |
| 2026-05-07 23:46 | 56.86917 | -100.24399 | 37805 ft | 504 kts | 229° |
| 2026-05-07 23:46 | 56.82018 | -100.33472 | 37812 ft | 504 kts | 229° |
| 2026-05-07 23:47 | 56.77118 | -100.42509 | 37812 ft | 504 kts | 229° |
| 2026-05-07 23:47 | 56.72223 | -100.51504 | 37817 ft | 503 kts | 229° |
| 2026-05-07 23:48 | 56.67294 | -100.60525 | 37815 ft | 503 kts | 229° |
| 2026-05-07 23:48 | 56.62395 | -100.69457 | 37821 ft | 503 kts | 228° |
| 2026-05-07 23:49 | 56.57475 | -100.78390 | 37826 ft | 503 kts | 228° |
| 2026-05-07 23:49 | 56.52519 | -100.87354 | 37825 ft | 503 kts | 228° |
| 2026-05-07 23:50 | 56.47589 | -100.96236 | 37821 ft | 503 kts | 228° |
| 2026-05-07 23:50 | 56.42616 | -101.05163 | 37826 ft | 503 kts | 229° |
| 2026-05-07 23:51 | 56.37649 | -101.14043 | 37827 ft | 502 kts | 229° |
| 2026-05-07 23:51 | 56.32726 | -101.22813 | 37839 ft | 502 kts | 228° |
| 2026-05-07 23:52 | 56.27762 | -101.31617 | 37825 ft | 502 kts | 228° |
| 2026-05-07 23:52 | 56.22785 | -101.40411 | 37834 ft | 502 kts | 229° |
| 2026-05-07 23:53 | 56.17824 | -101.49146 | 37828 ft | 503 kts | 229° |
| 2026-05-07 23:53 | 56.12839 | -101.57890 | 37831 ft | 503 kts | 229° |
| 2026-05-07 23:54 | 56.07870 | -101.66569 | 37831 ft | 503 kts | 228° |
| 2026-05-07 23:54 | 56.02867 | -101.75276 | 37834 ft | 503 kts | 228° |
| 2026-05-07 23:55 | 55.97871 | -101.83939 | 37839 ft | 502 kts | 228° |
| 2026-05-07 23:55 | 55.92874 | -101.92568 | 37835 ft | 503 kts | 228° |
| 2026-05-07 23:56 | 55.87843 | -102.01225 | 37834 ft | 502 kts | 228° |
| 2026-05-07 23:56 | 55.82831 | -102.09817 | 37831 ft | 501 kts | 228° |
| 2026-05-07 23:57 | 55.77830 | -102.18357 | 37819 ft | 500 kts | 228° |
| 2026-05-07 23:57 | 55.72783 | -102.26945 | 37822 ft | 501 kts | 228° |
| 2026-05-07 23:58 | 55.67776 | -102.35430 | 37827 ft | 500 kts | 228° |
| 2026-05-07 23:58 | 55.62775 | -102.43875 | 37820 ft | 500 kts | 228° |
| 2026-05-07 23:59 | 55.57746 | -102.52336 | 37823 ft | 499 kts | 228° |
| 2026-05-07 23:59 | 55.52744 | -102.60719 | 37824 ft | 499 kts | 228° |
| 2026-05-08 00:00 | 55.47708 | -102.69130 | 37830 ft | 499 kts | 227° |
| 2026-05-08 00:00 | 55.42691 | -102.77477 | 37839 ft | 500 kts | 227° |
| 2026-05-08 00:01 | 55.37638 | -102.85853 | 37842 ft | 500 kts | 227° |
| 2026-05-08 00:01 | 55.32603 | -102.94169 | 37846 ft | 500 kts | 227° |
| 2026-05-08 00:02 | 55.27555 | -103.02477 | 37845 ft | 501 kts | 227° |
| 2026-05-08 00:02 | 55.22475 | -103.10806 | 37847 ft | 499 kts | 227° |
| 2026-05-08 00:03 | 55.17424 | -103.19055 | 37847 ft | 498 kts | 227° |
| 2026-05-08 00:03 | 55.12391 | -103.27248 | 37842 ft | 497 kts | 227° |
| 2026-05-08 00:04 | 55.07336 | -103.35447 | 37839 ft | 498 kts | 227° |
| 2026-05-08 00:04 | 55.02259 | -103.43649 | 37842 ft | 498 kts | 227° |
| 2026-05-08 00:05 | 54.97178 | -103.51831 | 37839 ft | 498 kts | 227° |
| 2026-05-08 00:05 | 54.92106 | -103.59969 | 37841 ft | 497 kts | 227° |
| 2026-05-08 00:06 | 54.87019 | -103.68101 | 37830 ft | 497 kts | 226° |
| 2026-05-08 00:06 | 54.81962 | -103.76155 | 37828 ft | 498 kts | 226° |
| 2026-05-08 00:07 | 54.76839 | -103.84257 | 37820 ft | 499 kts | 225° |
| 2026-05-08 00:07 | 54.71620 | -103.92108 | 37807 ft | 500 kts | 225° |
| 2026-05-08 00:08 | 54.66400 | -103.99946 | 37806 ft | 501 kts | 225° |
| 2026-05-08 00:08 | 54.61155 | -104.07794 | 37809 ft | 500 kts | 225° |
| 2026-05-08 00:09 | 54.55911 | -104.15614 | 37798 ft | 500 kts | 225° |
| 2026-05-08 00:09 | 54.50671 | -104.23401 | 37800 ft | 498 kts | 225° |
| 2026-05-08 00:10 | 54.45444 | -104.31140 | 37809 ft | 499 kts | 225° |
| 2026-05-08 00:10 | 54.40202 | -104.38874 | 37808 ft | 500 kts | 225° |
| 2026-05-08 00:11 | 54.34940 | -104.46611 | 37808 ft | 500 kts | 225° |
| 2026-05-08 00:11 | 54.29693 | -104.54301 | 37803 ft | 498 kts | 225° |
| 2026-05-08 00:12 | 54.24445 | -104.61961 | 37800 ft | 498 kts | 225° |
| 2026-05-08 00:12 | 54.19165 | -104.69646 | 37810 ft | 498 kts | 224° |
| 2026-05-08 00:13 | 54.13908 | -104.77268 | 37805 ft | 498 kts | 224° |
| 2026-05-08 00:13 | 54.08663 | -104.84848 | 37811 ft | 498 kts | 224° |
| 2026-05-08 00:14 | 54.03392 | -104.92439 | 37814 ft | 498 kts | 224° |
| 2026-05-08 00:14 | 53.98102 | -105.00030 | 37812 ft | 497 kts | 224° |
| 2026-05-08 00:15 | 53.92851 | -105.07542 | 37809 ft | 498 kts | 224° |
| 2026-05-08 00:15 | 53.87551 | -105.15095 | 37802 ft | 499 kts | 224° |
| 2026-05-08 00:16 | 53.82262 | -105.22607 | 37801 ft | 498 kts | 225° |
| 2026-05-08 00:16 | 53.76974 | -105.30093 | 37809 ft | 497 kts | 225° |
| 2026-05-08 00:17 | 53.71674 | -105.37571 | 37798 ft | 497 kts | 225° |
| 2026-05-08 00:17 | 53.66389 | -105.45003 | 37791 ft | 497 kts | 225° |
| 2026-05-08 00:18 | 53.61088 | -105.52430 | 37790 ft | 497 kts | 225° |
| 2026-05-08 00:18 | 53.55792 | -105.59827 | 37794 ft | 497 kts | 225° |
| 2026-05-08 00:19 | 53.50479 | -105.67224 | 37793 ft | 498 kts | 224° |
| 2026-05-08 00:19 | 53.45170 | -105.74587 | 37796 ft | 498 kts | 224° |
| 2026-05-08 00:20 | 53.39854 | -105.81937 | 37800 ft | 498 kts | 224° |
| 2026-05-08 00:20 | 53.34526 | -105.89279 | 37807 ft | 499 kts | 224° |
| 2026-05-08 00:21 | 53.29184 | -105.96615 | 37811 ft | 499 kts | 224° |
| 2026-05-08 00:21 | 53.23822 | -106.03955 | 37803 ft | 500 kts | 224° |
| 2026-05-08 00:22 | 53.18482 | -106.11240 | 37809 ft | 498 kts | 224° |
| 2026-05-08 00:22 | 53.13135 | -106.18509 | 37806 ft | 497 kts | 224° |
| 2026-05-08 00:23 | 53.07767 | -106.25784 | 37808 ft | 497 kts | 224° |
| 2026-05-08 00:23 | 53.02415 | -106.33012 | 37805 ft | 498 kts | 224° |
| 2026-05-08 00:24 | 52.97075 | -106.40203 | 37810 ft | 498 kts | 224° |
| 2026-05-08 00:24 | 52.91702 | -106.47412 | 37806 ft | 498 kts | 224° |
| 2026-05-08 00:25 | 52.86322 | -106.54607 | 37793 ft | 498 kts | 224° |
| 2026-05-08 00:25 | 52.80953 | -106.61764 | 37800 ft | 498 kts | 225° |
| 2026-05-08 00:26 | 52.75574 | -106.68912 | 37806 ft | 498 kts | 224° |
| 2026-05-08 00:26 | 52.70199 | -106.76031 | 37807 ft | 499 kts | 224° |
| 2026-05-08 00:27 | 52.64778 | -106.83183 | 37808 ft | 498 kts | 224° |
| 2026-05-08 00:27 | 52.59385 | -106.90281 | 37804 ft | 498 kts | 224° |
| 2026-05-08 00:28 | 52.54006 | -106.97336 | 37805 ft | 498 kts | 224° |
| 2026-05-08 00:28 | 52.48618 | -107.04378 | 37812 ft | 499 kts | 224° |
| 2026-05-08 00:29 | 52.43189 | -107.11453 | 37812 ft | 497 kts | 224° |
| 2026-05-08 00:29 | 52.37810 | -107.18439 | 37807 ft | 497 kts | 224° |
| 2026-05-08 00:30 | 52.32421 | -107.25417 | 37803 ft | 498 kts | 224° |
| 2026-05-08 00:30 | 52.26971 | -107.32450 | 37801 ft | 499 kts | 224° |
| 2026-05-08 00:31 | 52.21542 | -107.39434 | 37800 ft | 499 kts | 224° |
| 2026-05-08 00:31 | 52.16110 | -107.46398 | 37797 ft | 498 kts | 224° |
| 2026-05-08 00:32 | 52.10695 | -107.53321 | 37796 ft | 498 kts | 224° |
| 2026-05-08 00:32 | 52.05268 | -107.60235 | 37799 ft | 499 kts | 224° |
| 2026-05-08 00:33 | 51.99795 | -107.67186 | 37864 ft | 497 kts | 223° |
| 2026-05-08 00:33 | 51.97100 | -107.70599 | 37980 ft | 496 kts | 223° |
| 2026-05-08 00:33 | 51.94408 | -107.74006 | 38091 ft | 494 kts | 223° |
| 2026-05-08 00:34 | 51.91691 | -107.77438 | 38208 ft | 492 kts | 224° |
| 2026-05-08 00:34 | 51.89010 | -107.80820 | 38318 ft | 491 kts | 224° |
| 2026-05-08 00:34 | 51.83641 | -107.87575 | 38511 ft | 489 kts | 224° |
| 2026-05-08 00:35 | 51.80991 | -107.90900 | 38616 ft | 487 kts | 224° |
| 2026-05-08 00:35 | 51.78325 | -107.94243 | 38734 ft | 487 kts | 223° |
| 2026-05-08 00:35 | 51.75644 | -107.97598 | 38848 ft | 485 kts | 223° |
| 2026-05-08 00:35 | 51.73012 | -108.00887 | 38961 ft | 484 kts | 223° |
| 2026-05-08 00:36 | 51.70343 | -108.04215 | 39089 ft | 483 kts | 223° |
| 2026-05-08 00:36 | 51.67697 | -108.07510 | 39209 ft | 482 kts | 223° |
| 2026-05-08 00:36 | 51.65074 | -108.10776 | 39327 ft | 481 kts | 223° |
| 2026-05-08 00:36 | 51.62425 | -108.14062 | 39452 ft | 480 kts | 223° |
| 2026-05-08 00:37 | 51.59811 | -108.17305 | 39571 ft | 479 kts | 223° |
| 2026-05-08 00:37 | 51.57151 | -108.20600 | 39692 ft | 478 kts | 223° |
| 2026-05-08 00:37 | 51.54530 | -108.23840 | 39801 ft | 478 kts | 223° |
| 2026-05-08 00:38 | 51.49279 | -108.30318 | 39812 ft | 482 kts | 223° |
| 2026-05-08 00:38 | 51.43935 | -108.36891 | 39822 ft | 485 kts | 223° |
| 2026-05-08 00:39 | 51.38602 | -108.43430 | 39827 ft | 488 kts | 223° |
| 2026-05-08 00:39 | 51.33219 | -108.50009 | 39829 ft | 489 kts | 223° |
| 2026-05-08 00:40 | 51.27822 | -108.56588 | 39828 ft | 491 kts | 223° |
| 2026-05-08 00:40 | 51.22404 | -108.63171 | 39824 ft | 492 kts | 223° |
| 2026-05-08 00:41 | 51.16969 | -108.69753 | 39826 ft | 493 kts | 222° |
| 2026-05-08 00:41 | 51.11539 | -108.76311 | 39825 ft | 494 kts | 222° |
| 2026-05-08 00:42 | 51.06083 | -108.82880 | 39824 ft | 494 kts | 222° |
| 2026-05-08 00:42 | 51.00585 | -108.89481 | 39825 ft | 495 kts | 222° |
| 2026-05-08 00:43 | 50.95131 | -108.96008 | 39830 ft | 495 kts | 222° |
| 2026-05-08 00:43 | 50.89646 | -109.02550 | 39848 ft | 496 kts | 222° |
| 2026-05-08 00:44 | 50.84124 | -109.09119 | 39845 ft | 496 kts | 222° |
| 2026-05-08 00:44 | 50.78648 | -109.15613 | 39846 ft | 496 kts | 223° |
| 2026-05-08 00:45 | 50.73131 | -109.22137 | 39843 ft | 495 kts | 222° |
| 2026-05-08 00:45 | 50.67636 | -109.28616 | 39844 ft | 495 kts | 223° |
| 2026-05-08 00:46 | 50.62128 | -109.35087 | 39850 ft | 495 kts | 223° |
| 2026-05-08 00:46 | 50.56623 | -109.41540 | 39850 ft | 495 kts | 223° |
| 2026-05-08 00:47 | 50.51147 | -109.47938 | 39853 ft | 495 kts | 223° |
| 2026-05-08 00:47 | 50.45616 | -109.54379 | 39853 ft | 495 kts | 223° |
| 2026-05-08 00:48 | 50.40113 | -109.60770 | 39859 ft | 495 kts | 223° |
| 2026-05-08 00:48 | 50.34591 | -109.67165 | 39858 ft | 495 kts | 222° |
| 2026-05-08 00:49 | 50.29068 | -109.73542 | 39875 ft | 495 kts | 222° |
| 2026-05-08 00:49 | 50.23549 | -109.79894 | 39880 ft | 495 kts | 222° |
| 2026-05-08 00:50 | 50.18021 | -109.86240 | 39878 ft | 495 kts | 222° |
| 2026-05-08 00:50 | 50.12473 | -109.92588 | 39876 ft | 495 kts | 222° |
| 2026-05-08 00:51 | 50.06944 | -109.98896 | 39883 ft | 495 kts | 222° |
| 2026-05-08 00:51 | 50.01347 | -110.05102 | 39893 ft | 496 kts | 221° |
| 2026-05-08 00:52 | 49.95723 | -110.11309 | 39901 ft | 496 kts | 221° |
| 2026-05-08 00:52 | 49.90122 | -110.17464 | 39910 ft | 496 kts | 221° |
| 2026-05-08 00:53 | 49.84473 | -110.23650 | 39895 ft | 495 kts | 221° |
| 2026-05-08 00:53 | 49.78896 | -110.29742 | 39921 ft | 495 kts | 221° |
| 2026-05-08 00:54 | 49.73266 | -110.35876 | 39912 ft | 495 kts | 222° |
| 2026-05-08 00:54 | 49.67650 | -110.41973 | 39920 ft | 495 kts | 222° |
| 2026-05-08 00:55 | 49.62012 | -110.48079 | 39910 ft | 495 kts | 222° |
| 2026-05-08 00:55 | 49.56405 | -110.54131 | 39921 ft | 495 kts | 222° |
| 2026-05-08 00:56 | 49.50749 | -110.60224 | 39928 ft | 495 kts | 222° |
| 2026-05-08 00:56 | 49.45145 | -110.66239 | 39924 ft | 495 kts | 221° |
| 2026-05-08 00:57 | 49.39498 | -110.72282 | 39932 ft | 496 kts | 221° |
| 2026-05-08 00:57 | 49.33827 | -110.78336 | 39927 ft | 496 kts | 221° |
| 2026-05-08 00:58 | 49.28176 | -110.84351 | 39946 ft | 497 kts | 221° |
| 2026-05-08 00:58 | 49.22511 | -110.90366 | 39924 ft | 497 kts | 221° |
| 2026-05-08 00:59 | 49.16835 | -110.96371 | 39925 ft | 498 kts | 221° |
| 2026-05-08 00:59 | 49.11142 | -111.02379 | 39959 ft | 498 kts | 221° |
| 2026-05-08 01:00 | 49.05447 | -111.08375 | 39950 ft | 497 kts | 222° |
| 2026-05-08 01:00 | 48.99787 | -111.14314 | 39963 ft | 498 kts | 222° |
| 2026-05-08 01:01 | 48.94100 | -111.20264 | 39971 ft | 498 kts | 222° |
| 2026-05-08 01:01 | 48.88374 | -111.26239 | 39954 ft | 498 kts | 222° |
| 2026-05-08 01:02 | 48.82666 | -111.32179 | 39967 ft | 497 kts | 222° |
| 2026-05-08 01:02 | 48.76980 | -111.38080 | 39951 ft | 497 kts | 222° |
| 2026-05-08 01:03 | 48.71279 | -111.43980 | 39942 ft | 497 kts | 223° |
| 2026-05-08 01:03 | 48.65600 | -111.49840 | 39965 ft | 497 kts | 223° |
| 2026-05-08 01:04 | 48.59923 | -111.55680 | 39957 ft | 497 kts | 223° |
| 2026-05-08 01:04 | 48.54193 | -111.61557 | 39957 ft | 497 kts | 223° |
| 2026-05-08 01:05 | 48.48502 | -111.67382 | 39966 ft | 498 kts | 222° |
| 2026-05-08 01:05 | 48.42769 | -111.73234 | 39974 ft | 499 kts | 222° |
| 2026-05-08 01:06 | 48.37040 | -111.79062 | 39958 ft | 500 kts | 222° |
| 2026-05-08 01:06 | 48.31276 | -111.84915 | 39960 ft | 500 kts | 222° |
| 2026-05-08 01:07 | 48.25528 | -111.90730 | 39957 ft | 501 kts | 222° |
| 2026-05-08 01:07 | 48.19770 | -111.96541 | 39982 ft | 501 kts | 223° |
| 2026-05-08 01:08 | 48.14032 | -112.02318 | 40003 ft | 502 kts | 223° |
| 2026-05-08 01:08 | 48.08235 | -112.08134 | 40002 ft | 501 kts | 223° |
| 2026-05-08 01:09 | 48.02455 | -112.13918 | 40017 ft | 501 kts | 223° |
| 2026-05-08 01:09 | 47.96684 | -112.19683 | 40005 ft | 501 kts | 223° |
| 2026-05-08 01:10 | 47.90924 | -112.25415 | 40020 ft | 500 kts | 223° |
| 2026-05-08 01:10 | 47.85149 | -112.31146 | 40015 ft | 500 kts | 223° |
| 2026-05-08 01:11 | 47.79385 | -112.36855 | 40013 ft | 499 kts | 223° |
| 2026-05-08 01:11 | 47.73636 | -112.42532 | 40017 ft | 498 kts | 224° |
| 2026-05-08 01:12 | 47.67865 | -112.48216 | 40034 ft | 497 kts | 224° |
| 2026-05-08 01:12 | 47.62110 | -112.53869 | 40026 ft | 497 kts | 224° |
| 2026-05-08 01:13 | 47.56382 | -112.59476 | 40038 ft | 497 kts | 224° |
| 2026-05-08 01:13 | 47.50613 | -112.65112 | 40040 ft | 497 kts | 223° |
| 2026-05-08 01:14 | 47.44841 | -112.70737 | 40047 ft | 498 kts | 223° |
| 2026-05-08 01:14 | 47.39089 | -112.76324 | 40061 ft | 498 kts | 224° |
| 2026-05-08 01:15 | 47.33329 | -112.81908 | 40049 ft | 498 kts | 224° |
| 2026-05-08 01:15 | 47.27542 | -112.87501 | 40027 ft | 499 kts | 223° |
| 2026-05-08 01:16 | 47.21740 | -112.93092 | 40048 ft | 499 kts | 224° |
| 2026-05-08 01:16 | 47.15967 | -112.98644 | 40054 ft | 499 kts | 224° |
| 2026-05-08 01:17 | 47.10192 | -113.04180 | 40059 ft | 499 kts | 224° |
| 2026-05-08 01:17 | 47.04413 | -113.09705 | 40050 ft | 498 kts | 224° |
| 2026-05-08 01:18 | 46.98583 | -113.15268 | 40028 ft | 499 kts | 224° |
| 2026-05-08 01:18 | 46.92796 | -113.20774 | 40043 ft | 498 kts | 224° |
| 2026-05-08 01:19 | 46.87027 | -113.26246 | 40028 ft | 497 kts | 224° |
| 2026-05-08 01:19 | 46.81217 | -113.31745 | 40046 ft | 496 kts | 224° |
| 2026-05-08 01:20 | 46.75483 | -113.37157 | 40052 ft | 495 kts | 224° |
| 2026-05-08 01:20 | 46.69711 | -113.42592 | 40061 ft | 494 kts | 224° |
| 2026-05-08 01:21 | 46.63971 | -113.47981 | 40060 ft | 493 kts | 224° |
| 2026-05-08 01:21 | 46.58215 | -113.53371 | 40064 ft | 493 kts | 224° |
| 2026-05-08 01:22 | 46.52472 | -113.58740 | 40064 ft | 493 kts | 224° |
| 2026-05-08 01:22 | 46.46705 | -113.64113 | 40070 ft | 493 kts | 224° |
| 2026-05-08 01:23 | 46.40929 | -113.69481 | 40090 ft | 494 kts | 223° |
| 2026-05-08 01:23 | 46.35151 | -113.74839 | 40091 ft | 495 kts | 223° |
| 2026-05-08 01:24 | 46.29349 | -113.80202 | 40099 ft | 495 kts | 223° |
| 2026-05-08 01:24 | 46.23584 | -113.85519 | 40100 ft | 495 kts | 223° |
| 2026-05-08 01:25 | 46.17789 | -113.90852 | 40097 ft | 495 kts | 223° |
| 2026-05-08 01:25 | 46.11993 | -113.96172 | 40102 ft | 495 kts | 223° |
| 2026-05-08 01:26 | 46.06204 | -114.01471 | 40099 ft | 495 kts | 223° |
| 2026-05-08 01:26 | 46.00393 | -114.06778 | 40105 ft | 495 kts | 223° |
| 2026-05-08 01:27 | 45.94578 | -114.12076 | 40113 ft | 495 kts | 222° |
| 2026-05-08 01:27 | 45.88750 | -114.17367 | 40104 ft | 495 kts | 222° |
| 2026-05-08 01:28 | 45.82970 | -114.22607 | 40103 ft | 495 kts | 222° |
| 2026-05-08 01:28 | 45.77163 | -114.27854 | 40102 ft | 494 kts | 222° |
| 2026-05-08 01:29 | 45.71361 | -114.33088 | 40100 ft | 494 kts | 222° |
| 2026-05-08 01:29 | 45.65546 | -114.38318 | 40100 ft | 494 kts | 222° |
| 2026-05-08 01:30 | 45.59766 | -114.43505 | 40106 ft | 493 kts | 222° |
| 2026-05-08 01:30 | 45.53945 | -114.48714 | 40109 ft | 493 kts | 222° |
| 2026-05-08 01:31 | 45.48170 | -114.53870 | 40121 ft | 493 kts | 222° |
| 2026-05-08 01:31 | 45.42363 | -114.59045 | 40121 ft | 494 kts | 222° |
| 2026-05-08 01:32 | 45.36559 | -114.64199 | 40120 ft | 493 kts | 222° |
| 2026-05-08 01:32 | 45.30757 | -114.69340 | 40136 ft | 493 kts | 221° |
| 2026-05-08 01:33 | 45.24935 | -114.74488 | 40150 ft | 494 kts | 221° |
| 2026-05-08 01:33 | 45.19108 | -114.79629 | 40151 ft | 494 kts | 221° |
| 2026-05-08 01:34 | 45.13290 | -114.84747 | 40148 ft | 495 kts | 221° |
| 2026-05-08 01:34 | 45.07430 | -114.89890 | 40138 ft | 495 kts | 221° |
| 2026-05-08 01:35 | 45.01586 | -114.95007 | 40141 ft | 495 kts | 221° |
| 2026-05-08 01:35 | 44.95747 | -115.00108 | 40154 ft | 496 kts | 221° |
| 2026-05-08 01:36 | 44.90006 | -115.05109 | 40155 ft | 496 kts | 220° |
| 2026-05-08 01:36 | 44.84013 | -115.10319 | 40156 ft | 495 kts | 221° |
| 2026-05-08 01:37 | 44.78193 | -115.15363 | 40150 ft | 494 kts | 220° |
| 2026-05-08 01:37 | 44.72327 | -115.20438 | 40151 ft | 494 kts | 220° |
| 2026-05-08 01:38 | 44.66495 | -115.25472 | 40147 ft | 493 kts | 220° |
| 2026-05-08 01:38 | 44.60666 | -115.30489 | 40148 ft | 493 kts | 220° |
| 2026-05-08 01:39 | 44.54804 | -115.35524 | 40153 ft | 493 kts | 220° |
| 2026-05-08 01:39 | 44.48969 | -115.40523 | 40163 ft | 493 kts | 220° |
| 2026-05-08 01:40 | 44.43143 | -115.45504 | 40162 ft | 492 kts | 220° |
| 2026-05-08 01:40 | 44.37309 | -115.50476 | 40161 ft | 492 kts | 220° |
| 2026-05-08 01:41 | 44.31506 | -115.55411 | 40166 ft | 491 kts | 220° |
| 2026-05-08 01:41 | 44.25665 | -115.60371 | 40161 ft | 491 kts | 219° |
| 2026-05-08 01:42 | 44.19819 | -115.65321 | 40158 ft | 490 kts | 219° |
| 2026-05-08 01:42 | 44.13976 | -115.70256 | 40161 ft | 491 kts | 219° |
| 2026-05-08 01:43 | 44.08160 | -115.75158 | 40161 ft | 492 kts | 219° |
| 2026-05-08 01:43 | 44.02327 | -115.80062 | 40151 ft | 492 kts | 218° |
| 2026-05-08 01:44 | 43.96491 | -115.84957 | 40150 ft | 491 kts | 219° |
| 2026-05-08 01:44 | 43.90638 | -115.89857 | 40128 ft | 492 kts | 218° |
| 2026-05-08 01:45 | 43.84790 | -115.94740 | 40100 ft | 491 kts | 218° |
| 2026-05-08 01:45 | 43.78955 | -115.99601 | 40067 ft | 491 kts | 218° |
| 2026-05-08 01:46 | 43.73118 | -116.04449 | 40048 ft | 491 kts | 218° |
| 2026-05-08 01:46 | 43.67253 | -116.09313 | 40034 ft | 490 kts | 218° |
| 2026-05-08 01:47 | 43.61421 | -116.14137 | 40032 ft | 489 kts | 218° |
| 2026-05-08 01:47 | 43.55660 | -116.18963 | 40017 ft | 484 kts | 223° |
| 2026-05-08 01:48 | 43.51146 | -116.25467 | 40039 ft | 468 kts | 236° |
| 2026-05-08 01:48 | 43.48989 | -116.28815 | 39992 ft | 470 kts | 235° |
| 2026-05-08 01:48 | 43.44621 | -116.35513 | 40006 ft | 470 kts | 235° |
| 2026-05-08 01:49 | 43.40253 | -116.42172 | 40002 ft | 470 kts | 235° |
| 2026-05-08 01:49 | 43.35894 | -116.48800 | 40014 ft | 470 kts | 235° |
| 2026-05-08 01:50 | 43.31482 | -116.55495 | 40024 ft | 471 kts | 234° |
| 2026-05-08 01:50 | 43.27107 | -116.62115 | 40035 ft | 471 kts | 234° |
| 2026-05-08 01:51 | 43.22715 | -116.68745 | 40059 ft | 471 kts | 234° |
| 2026-05-08 01:51 | 43.18306 | -116.75390 | 40081 ft | 471 kts | 234° |
| 2026-05-08 01:52 | 43.13909 | -116.82000 | 40094 ft | 471 kts | 234° |
| 2026-05-08 01:52 | 43.09503 | -116.88604 | 40120 ft | 471 kts | 234° |
| 2026-05-08 01:53 | 43.05094 | -116.95201 | 40134 ft | 472 kts | 234° |
| 2026-05-08 01:53 | 43.00680 | -117.01793 | 40121 ft | 472 kts | 233° |
| 2026-05-08 01:54 | 42.96248 | -117.08392 | 40130 ft | 473 kts | 233° |
| 2026-05-08 01:54 | 42.91823 | -117.14967 | 40127 ft | 473 kts | 233° |
| 2026-05-08 01:55 | 42.87383 | -117.21549 | 40114 ft | 473 kts | 233° |
| 2026-05-08 01:55 | 42.82925 | -117.28142 | 40108 ft | 473 kts | 233° |
| 2026-05-08 01:56 | 42.78479 | -117.34703 | 40114 ft | 473 kts | 233° |
| 2026-05-08 01:56 | 42.74028 | -117.41257 | 40111 ft | 472 kts | 233° |
| 2026-05-08 01:57 | 42.69571 | -117.47805 | 40112 ft | 472 kts | 233° |
| 2026-05-08 01:57 | 42.65108 | -117.54346 | 40118 ft | 472 kts | 233° |
| 2026-05-08 01:58 | 42.60643 | -117.60875 | 40127 ft | 472 kts | 233° |
| 2026-05-08 01:58 | 42.56175 | -117.67394 | 40133 ft | 473 kts | 232° |
| 2026-05-08 01:59 | 42.51720 | -117.73879 | 40133 ft | 473 kts | 232° |
| 2026-05-08 01:59 | 42.47227 | -117.80407 | 40139 ft | 473 kts | 232° |
| 2026-05-08 02:00 | 42.42734 | -117.86916 | 40130 ft | 473 kts | 232° |
| 2026-05-08 02:00 | 42.38269 | -117.93372 | 40162 ft | 473 kts | 232° |
| 2026-05-08 02:01 | 42.33784 | -117.99844 | 40180 ft | 473 kts | 232° |
| 2026-05-08 02:01 | 42.29286 | -118.06319 | 40176 ft | 473 kts | 232° |
| 2026-05-08 02:02 | 42.24781 | -118.12791 | 40181 ft | 474 kts | 231° |
| 2026-05-08 02:02 | 42.20276 | -118.19246 | 40186 ft | 474 kts | 231° |
| 2026-05-08 02:03 | 42.15784 | -118.25668 | 40193 ft | 474 kts | 231° |
| 2026-05-08 02:03 | 42.11266 | -118.32114 | 40202 ft | 474 kts | 231° |
| 2026-05-08 02:04 | 42.06751 | -118.38543 | 40214 ft | 474 kts | 231° |
| 2026-05-08 02:04 | 42.02228 | -118.44967 | 40214 ft | 474 kts | 231° |
| 2026-05-08 02:05 | 41.97721 | -118.51354 | 40191 ft | 474 kts | 231° |
| 2026-05-08 02:05 | 41.93170 | -118.57790 | 40189 ft | 474 kts | 230° |
| 2026-05-08 02:06 | 41.88656 | -118.64159 | 40182 ft | 474 kts | 230° |
| 2026-05-08 02:06 | 41.84101 | -118.70573 | 40188 ft | 474 kts | 230° |
| 2026-05-08 02:07 | 41.79557 | -118.76956 | 40187 ft | 474 kts | 230° |
| 2026-05-08 02:07 | 41.75007 | -118.83333 | 40184 ft | 474 kts | 229° |
| 2026-05-08 02:08 | 41.70454 | -118.89701 | 40197 ft | 474 kts | 229° |
| 2026-05-08 02:08 | 41.65910 | -118.96043 | 40212 ft | 473 kts | 229° |
| 2026-05-08 02:09 | 41.61375 | -119.02360 | 40216 ft | 474 kts | 229° |
| 2026-05-08 02:09 | 41.56821 | -119.08686 | 40221 ft | 474 kts | 229° |
| 2026-05-08 02:10 | 41.52242 | -119.15037 | 40222 ft | 474 kts | 229° |
| 2026-05-08 02:10 | 41.47707 | -119.21312 | 40215 ft | 474 kts | 229° |
| 2026-05-08 02:11 | 41.43116 | -119.27647 | 40207 ft | 474 kts | 229° |
| 2026-05-08 02:11 | 41.38559 | -119.33926 | 40208 ft | 474 kts | 229° |
| 2026-05-08 02:12 | 41.33990 | -119.40207 | 40203 ft | 474 kts | 229° |
| 2026-05-08 02:12 | 41.29419 | -119.46477 | 40185 ft | 474 kts | 229° |
| 2026-05-08 02:13 | 41.24837 | -119.52750 | 40183 ft | 473 kts | 228° |
| 2026-05-08 02:13 | 41.20267 | -119.58990 | 40191 ft | 473 kts | 228° |
| 2026-05-08 02:14 | 41.15671 | -119.65252 | 40209 ft | 473 kts | 227° |
| 2026-05-08 02:14 | 41.11087 | -119.71488 | 40213 ft | 473 kts | 227° |
| 2026-05-08 02:15 | 41.06491 | -119.77724 | 40213 ft | 473 kts | 227° |
| 2026-05-08 02:15 | 41.01900 | -119.83943 | 40207 ft | 474 kts | 227° |
| 2026-05-08 02:16 | 40.97319 | -119.90132 | 40226 ft | 473 kts | 227° |
| 2026-05-08 02:16 | 40.92719 | -119.96336 | 40237 ft | 471 kts | 227° |
| 2026-05-08 02:17 | 40.88142 | -120.02493 | 40224 ft | 471 kts | 227° |
| 2026-05-08 02:17 | 40.83546 | -120.08665 | 40237 ft | 472 kts | 227° |
| 2026-05-08 02:18 | 40.78949 | -120.14825 | 40241 ft | 472 kts | 227° |
| 2026-05-08 02:18 | 40.74371 | -120.20946 | 40256 ft | 472 kts | 227° |
| 2026-05-08 02:19 | 40.69769 | -120.27088 | 40247 ft | 472 kts | 227° |
| 2026-05-08 02:19 | 40.65158 | -120.33228 | 40240 ft | 471 kts | 227° |
| 2026-05-08 02:20 | 40.60563 | -120.39335 | 40232 ft | 470 kts | 227° |
| 2026-05-08 02:20 | 40.55971 | -120.45425 | 40225 ft | 470 kts | 227° |
| 2026-05-08 02:21 | 40.51365 | -120.51520 | 40210 ft | 471 kts | 227° |
| 2026-05-08 02:21 | 40.46788 | -120.57564 | 40224 ft | 470 kts | 227° |
| 2026-05-08 02:22 | 40.42178 | -120.63640 | 40239 ft | 470 kts | 227° |
| 2026-05-08 02:22 | 40.37566 | -120.69706 | 40231 ft | 470 kts | 226° |
| 2026-05-08 02:23 | 40.32936 | -120.75783 | 40219 ft | 470 kts | 226° |
| 2026-05-08 02:23 | 40.28346 | -120.81794 | 40218 ft | 470 kts | 226° |
| 2026-05-08 02:24 | 40.23714 | -120.87850 | 40222 ft | 470 kts | 226° |
| 2026-05-08 02:24 | 40.19118 | -120.93844 | 40225 ft | 471 kts | 226° |
| 2026-05-08 02:25 | 40.14492 | -120.99867 | 40219 ft | 470 kts | 226° |
| 2026-05-08 02:25 | 40.09866 | -121.05876 | 40204 ft | 469 kts | 226° |
| 2026-05-08 02:26 | 40.05242 | -121.11871 | 40186 ft | 468 kts | 227° |
| 2026-05-08 02:26 | 40.00632 | -121.17837 | 40166 ft | 469 kts | 227° |
| 2026-05-08 02:27 | 39.96035 | -121.23773 | 40151 ft | 469 kts | 227° |
| 2026-05-08 02:27 | 39.91397 | -121.29750 | 40151 ft | 462 kts | 227° |
| 2026-05-08 02:28 | 39.89133 | -121.32662 | 39902 ft | 450 kts | 227° |
| 2026-05-08 02:28 | 39.86948 | -121.35472 | 39379 ft | 441 kts | 226° |
| 2026-05-08 02:28 | 39.84769 | -121.38272 | 38898 ft | 433 kts | 226° |
| 2026-05-08 02:28 | 39.82672 | -121.40962 | 38424 ft | 425 kts | 226° |
| 2026-05-08 02:29 | 39.80583 | -121.43639 | 37943 ft | 418 kts | 226° |
| 2026-05-08 02:29 | 39.78523 | -121.46279 | 37459 ft | 411 kts | 226° |
| 2026-05-08 02:29 | 39.76517 | -121.48846 | 36980 ft | 405 kts | 226° |
| 2026-05-08 02:29 | 39.74523 | -121.51395 | 36504 ft | 400 kts | 226° |
| 2026-05-08 02:30 | 39.72524 | -121.53951 | 36025 ft | 395 kts | 226° |
| 2026-05-08 02:30 | 39.70566 | -121.56449 | 35564 ft | 399 kts | 226° |
| 2026-05-08 02:30 | 39.68517 | -121.59064 | 35153 ft | 419 kts | 226° |
| 2026-05-08 02:30 | 39.66408 | -121.61753 | 34762 ft | 438 kts | 226° |
| 2026-05-08 02:31 | 39.64181 | -121.64587 | 34345 ft | 450 kts | 226° |
| 2026-05-08 02:31 | 39.61936 | -121.67440 | 33908 ft | 443 kts | 225° |
| 2026-05-08 02:31 | 39.59769 | -121.70194 | 33501 ft | 434 kts | 225° |
| 2026-05-08 02:31 | 39.57773 | -121.72726 | 33132 ft | 426 kts | 225° |
| 2026-05-08 02:32 | 39.55690 | -121.75369 | 32755 ft | 419 kts | 225° |
| 2026-05-08 02:32 | 39.53608 | -121.78006 | 32386 ft | 418 kts | 225° |
| 2026-05-08 02:32 | 39.51510 | -121.80663 | 32022 ft | 418 kts | 225° |
| 2026-05-08 02:32 | 39.49445 | -121.83275 | 31659 ft | 416 kts | 225° |
| 2026-05-08 02:33 | 39.47394 | -121.85869 | 31294 ft | 414 kts | 225° |
| 2026-05-08 02:33 | 39.45341 | -121.88460 | 30930 ft | 412 kts | 225° |
| 2026-05-08 02:33 | 39.43290 | -121.91048 | 30634 ft | 408 kts | 225° |
| 2026-05-08 02:33 | 39.41285 | -121.93577 | 30516 ft | 406 kts | 225° |
| 2026-05-08 02:34 | 39.39268 | -121.96117 | 30395 ft | 408 kts | 225° |
| 2026-05-08 02:34 | 39.37212 | -121.98705 | 30270 ft | 408 kts | 225° |
| 2026-05-08 02:34 | 39.35160 | -122.01285 | 30144 ft | 407 kts | 225° |
| 2026-05-08 02:34 | 39.33137 | -122.03825 | 30013 ft | 406 kts | 225° |
| 2026-05-08 02:35 | 39.31138 | -122.06335 | 29882 ft | 405 kts | 225° |
| 2026-05-08 02:35 | 39.29124 | -122.08861 | 29753 ft | 405 kts | 225° |
| 2026-05-08 02:35 | 39.27091 | -122.11409 | 29618 ft | 404 kts | 225° |
| 2026-05-08 02:35 | 39.25075 | -122.13934 | 29486 ft | 404 kts | 225° |
| 2026-05-08 02:36 | 39.23064 | -122.16448 | 29353 ft | 403 kts | 225° |
| 2026-05-08 02:36 | 39.21069 | -122.18941 | 29223 ft | 402 kts | 225° |
| 2026-05-08 02:36 | 39.19081 | -122.21425 | 29090 ft | 400 kts | 225° |
| 2026-05-08 02:36 | 39.17079 | -122.23923 | 28984 ft | 399 kts | 225° |
| 2026-05-08 02:37 | 39.13103 | -122.28878 | 29006 ft | 399 kts | 225° |
| 2026-05-08 02:37 | 39.09024 | -122.33953 | 29019 ft | 400 kts | 225° |
| 2026-05-08 02:38 | 39.05037 | -122.38906 | 29026 ft | 399 kts | 225° |
| 2026-05-08 02:38 | 39.01057 | -122.43841 | 29044 ft | 398 kts | 225° |
| 2026-05-08 02:39 | 38.97033 | -122.48823 | 29050 ft | 399 kts | 225° |
| 2026-05-08 02:39 | 38.95039 | -122.51289 | 28802 ft | 403 kts | 225° |
| 2026-05-08 02:39 | 38.93012 | -122.53793 | 28491 ft | 398 kts | 225° |
| 2026-05-08 02:40 | 38.90933 | -122.56207 | 28179 ft | 394 kts | 218° |
| 2026-05-08 02:40 | 38.88570 | -122.57927 | 27885 ft | 394 kts | 204° |
| 2026-05-08 02:40 | 38.85889 | -122.58907 | 27604 ft | 394 kts | 194° |
| 2026-05-08 02:40 | 38.83221 | -122.59667 | 27325 ft | 393 kts | 194° |
| 2026-05-08 02:41 | 38.80519 | -122.60436 | 27034 ft | 391 kts | 194° |
| 2026-05-08 02:41 | 38.77838 | -122.61195 | 26743 ft | 389 kts | 194° |
| 2026-05-08 02:41 | 38.75179 | -122.61948 | 26446 ft | 387 kts | 194° |
| 2026-05-08 02:41 | 38.72504 | -122.62704 | 26022 ft | 387 kts | 194° |
| 2026-05-08 02:42 | 38.69812 | -122.63463 | 25588 ft | 382 kts | 194° |
| 2026-05-08 02:42 | 38.67211 | -122.64197 | 25166 ft | 378 kts | 194° |
| 2026-05-08 02:42 | 38.64561 | -122.64944 | 24739 ft | 377 kts | 194° |
| 2026-05-08 02:42 | 38.61988 | -122.65668 | 24325 ft | 374 kts | 193° |
| 2026-05-08 02:43 | 38.59477 | -122.66376 | 23924 ft | 371 kts | 193° |
| 2026-05-08 02:43 | 38.56920 | -122.67096 | 23512 ft | 369 kts | 193° |
| 2026-05-08 02:43 | 38.54409 | -122.67802 | 23110 ft | 367 kts | 194° |
| 2026-05-08 02:43 | 38.51915 | -122.68504 | 22713 ft | 365 kts | 193° |
| 2026-05-08 02:44 | 38.49413 | -122.69206 | 22313 ft | 363 kts | 193° |
| 2026-05-08 02:44 | 38.46955 | -122.69896 | 21924 ft | 360 kts | 194° |
| 2026-05-08 02:44 | 38.44517 | -122.70580 | 21572 ft | 357 kts | 193° |
| 2026-05-08 02:44 | 38.42059 | -122.71270 | 21251 ft | 357 kts | 193° |
| 2026-05-08 02:45 | 38.39590 | -122.71961 | 20934 ft | 355 kts | 194° |
| 2026-05-08 02:45 | 38.37200 | -122.72633 | 20620 ft | 354 kts | 193° |
| 2026-05-08 02:45 | 38.34801 | -122.73302 | 20304 ft | 352 kts | 193° |
| 2026-05-08 02:45 | 38.32390 | -122.73976 | 19995 ft | 350 kts | 193° |
| 2026-05-08 02:46 | 38.30037 | -122.74632 | 19685 ft | 349 kts | 193° |
| 2026-05-08 02:46 | 38.27618 | -122.75309 | 19358 ft | 348 kts | 193° |
| 2026-05-08 02:46 | 38.25277 | -122.75963 | 19054 ft | 347 kts | 193° |
| 2026-05-08 02:46 | 38.22885 | -122.76575 | 18732 ft | 346 kts | 188° |
| 2026-05-08 02:47 | 38.20493 | -122.76401 | 18403 ft | 347 kts | 168° |
| 2026-05-08 02:47 | 38.18148 | -122.75607 | 18097 ft | 346 kts | 166° |
| 2026-05-08 02:47 | 38.15787 | -122.74861 | 17792 ft | 344 kts | 167° |
| 2026-05-08 02:47 | 38.13427 | -122.74149 | 17495 ft | 342 kts | 168° |
| 2026-05-08 02:48 | 38.11105 | -122.73461 | 17172 ft | 340 kts | 168° |
| 2026-05-08 02:48 | 38.08791 | -122.72785 | 16853 ft | 338 kts | 168° |
| 2026-05-08 02:48 | 38.06523 | -122.72125 | 16538 ft | 336 kts | 168° |
| 2026-05-08 02:48 | 38.04254 | -122.71467 | 16235 ft | 334 kts | 168° |
| 2026-05-08 02:49 | 38.01968 | -122.70804 | 15928 ft | 333 kts | 168° |
| 2026-05-08 02:49 | 37.99717 | -122.70150 | 15623 ft | 332 kts | 168° |
| 2026-05-08 02:49 | 37.97493 | -122.69507 | 15322 ft | 330 kts | 168° |
| 2026-05-08 02:49 | 37.95266 | -122.68862 | 15028 ft | 329 kts | 168° |
| 2026-05-08 02:50 | 37.93045 | -122.68221 | 14714 ft | 327 kts | 168° |
| 2026-05-08 02:50 | 37.90813 | -122.67562 | 14402 ft | 326 kts | 166° |
| 2026-05-08 02:50 | 37.88759 | -122.66348 | 14046 ft | 328 kts | 144° |
| 2026-05-08 02:50 | 37.87096 | -122.64406 | 13753 ft | 327 kts | 137° |
| 2026-05-08 02:51 | 37.85396 | -122.62522 | 13459 ft | 326 kts | 141° |
| 2026-05-08 02:51 | 37.83668 | -122.60679 | 13149 ft | 323 kts | 141° |
| 2026-05-08 02:51 | 37.81949 | -122.58851 | 12839 ft | 321 kts | 141° |
| 2026-05-08 02:51 | 37.80242 | -122.57044 | 12527 ft | 320 kts | 141° |
| 2026-05-08 02:52 | 37.78546 | -122.55248 | 12217 ft | 319 kts | 141° |
| 2026-05-08 02:52 | 37.76858 | -122.53462 | 11908 ft | 317 kts | 141° |
| 2026-05-08 02:52 | 37.75171 | -122.51676 | 11597 ft | 316 kts | 141° |
| 2026-05-08 02:52 | 37.73498 | -122.49908 | 11282 ft | 315 kts | 141° |
| 2026-05-08 02:53 | 37.71810 | -122.48113 | 10998 ft | 313 kts | 141° |
| 2026-05-08 02:53 | 37.70157 | -122.46352 | 10981 ft | 311 kts | 141° |
| 2026-05-08 02:53 | 37.68498 | -122.44589 | 10986 ft | 314 kts | 141° |
| 2026-05-08 02:53 | 37.66822 | -122.42806 | 10971 ft | 309 kts | 141° |
| 2026-05-08 02:54 | 37.65212 | -122.41095 | 10964 ft | 295 kts | 141° |
| 2026-05-08 02:54 | 37.63674 | -122.39463 | 10796 ft | 289 kts | 141° |
| 2026-05-08 02:54 | 37.62132 | -122.37827 | 10460 ft | 288 kts | 141° |
| 2026-05-08 02:54 | 37.60602 | -122.36212 | 10154 ft | 287 kts | 141° |
| 2026-05-08 02:55 | 37.59071 | -122.34592 | 9845 ft | 285 kts | 142° |
| 2026-05-08 02:55 | 37.56040 | -122.31391 | 9229 ft | 283 kts | 141° |
| 2026-05-08 02:55 | 37.54562 | -122.29832 | 9112 ft | 273 kts | 141° |
| 2026-05-08 02:56 | 37.53119 | -122.28310 | 8939 ft | 268 kts | 141° |
| 2026-05-08 02:56 | 37.51693 | -122.26807 | 8672 ft | 266 kts | 141° |
| 2026-05-08 02:56 | 37.50288 | -122.25328 | 8403 ft | 265 kts | 141° |
| 2026-05-08 02:56 | 37.48873 | -122.23837 | 8143 ft | 264 kts | 141° |
| 2026-05-08 02:57 | 37.47472 | -122.22363 | 7865 ft | 263 kts | 141° |
| 2026-05-08 02:57 | 37.46069 | -122.20891 | 7615 ft | 261 kts | 142° |
| 2026-05-08 02:57 | 37.44499 | -122.19798 | 7301 ft | 258 kts | 166° |
| 2026-05-08 02:57 | 37.42754 | -122.19397 | 7059 ft | 255 kts | 173° |
| 2026-05-08 02:58 | 37.41004 | -122.19065 | 6816 ft | 254 kts | 173° |
| 2026-05-08 02:58 | 37.39260 | -122.18733 | 6574 ft | 252 kts | 173° |
| 2026-05-08 02:58 | 37.37527 | -122.18401 | 6326 ft | 251 kts | 173° |
| 2026-05-08 02:58 | 37.35803 | -122.18067 | 6063 ft | 250 kts | 173° |
| 2026-05-08 02:59 | 37.34084 | -122.17738 | 5789 ft | 250 kts | 173° |
| 2026-05-08 02:59 | 37.32359 | -122.17370 | 5517 ft | 250 kts | 166° |
| 2026-05-08 02:59 | 37.30848 | -122.16290 | 5258 ft | 251 kts | 135° |
| 2026-05-08 02:59 | 37.29981 | -122.14410 | 5098 ft | 252 kts | 104° |
| 2026-05-08 03:00 | 37.29972 | -122.12254 | 4926 ft | 250 kts | 73° |
| 2026-05-08 03:00 | 37.30817 | -122.10395 | 4761 ft | 246 kts | 43° |
| 2026-05-08 03:00 | 37.32254 | -122.09355 | 4595 ft | 241 kts | 12° |
| 2026-05-08 03:00 | 37.33897 | -122.09388 | 4431 ft | 238 kts | 342° |
| 2026-05-08 03:01 | 37.35439 | -122.10151 | 4284 ft | 236 kts | 339° |
| 2026-05-08 03:01 | 37.36985 | -122.10820 | 4113 ft | 236 kts | 341° |
| 2026-05-08 03:01 | 37.38549 | -122.11447 | 3938 ft | 234 kts | 342° |
| 2026-05-08 03:01 | 37.40105 | -122.12056 | 3764 ft | 235 kts | 342° |
| 2026-05-08 03:02 | 37.41674 | -122.12664 | 3589 ft | 233 kts | 342° |
| 2026-05-08 03:02 | 37.43225 | -122.13265 | 3420 ft | 239 kts | 342° |
| 2026-05-08 03:02 | 37.44958 | -122.13937 | 3314 ft | 269 kts | 342° |
| 2026-05-08 03:02 | 37.46736 | -122.14625 | 3138 ft | 263 kts | 342° |
| 2026-05-08 03:03 | 37.48466 | -122.15295 | 2975 ft | 255 kts | 342° |
| 2026-05-08 03:03 | 37.50131 | -122.15940 | 2957 ft | 243 kts | 342° |
| 2026-05-08 03:03 | 37.51704 | -122.16549 | 2959 ft | 230 kts | 342° |
| 2026-05-08 03:03 | 37.53184 | -122.17169 | 2952 ft | 217 kts | 338° |
| 2026-05-08 03:04 | 37.54295 | -122.18289 | 2935 ft | 203 kts | 297° |
| 2026-05-08 03:04 | 37.54814 | -122.19940 | 2815 ft | 202 kts | 294° |
| 2026-05-08 03:04 | 37.55434 | -122.21596 | 2557 ft | 222 kts | 297° |
| 2026-05-08 03:04 | 37.56124 | -122.23312 | 2244 ft | 209 kts | 298° |
| 2026-05-08 03:05 | 37.56759 | -122.24838 | 1948 ft | 186 kts | 299° |
| 2026-05-08 03:05 | 37.57328 | -122.26191 | 1738 ft | 163 kts | 299° |
| 2026-05-08 03:05 | 37.57841 | -122.27401 | 1586 ft | 151 kts | 298° |
| 2026-05-08 03:05 | 37.58332 | -122.28565 | 1341 ft | 149 kts | 298° |
| 2026-05-08 03:06 | 37.58804 | -122.29685 | 1126 ft | 144 kts | 298° |
| 2026-05-08 03:06 | 37.59268 | -122.30786 | 933 ft | 142 kts | 298° |
| 2026-05-08 03:06 | 37.59734 | -122.31884 | 737 ft | 140 kts | 298° |
| 2026-05-08 03:06 | 37.60189 | -122.32970 | 546 ft | 139 kts | 298° |
| 2026-05-08 03:07 | 37.60651 | -122.34035 | 368 ft | 139 kts | 298° |
| 2026-05-08 03:07 | 37.61096 | -122.35097 | 187 ft | 135 kts | 297° |
| 2026-05-08 03:07 | 37.61541 | -122.36155 | 32 ft | 134 kts | 297° |
| 2026-05-08 03:07 | 37.61932 | -122.37092 | 23 ft | 89 kts | 297° |
| 2026-05-08 03:08 | 37.62074 | -122.37432 | 26 ft | 0 kts | 298° |
| 2026-05-08 03:08 | 37.62087 | -122.37462 | 26 ft | 13 kts | 298° |
| 2026-05-08 03:08 | 37.62150 | -122.37611 | 28 ft | 21 kts | 298° |
| 2026-05-08 03:08 | 37.62209 | -122.37780 | 31 ft | 20 kts | 287° |
| 2026-05-08 03:09 | 37.62227 | -122.37942 | 33 ft | 18 kts | 271° |
| 2026-05-08 03:09 | 37.62228 | -122.38098 | 34 ft | 16 kts | 271° |
| 2026-05-08 03:09 | 37.62216 | -122.38237 | 35 ft | 15 kts | 238° |
| 2026-05-08 03:09 | 37.62128 | -122.38316 | 36 ft | 15 kts | 201° |
| 2026-05-08 03:10 | 37.62030 | -122.38329 | 37 ft | 14 kts | 144° |
| 2026-05-08 03:10 | 37.61973 | -122.38219 | 37 ft | 15 kts | 118° |
| 2026-05-08 03:10 | 37.61921 | -122.38093 | 36 ft | 16 kts | 118° |
| 2026-05-08 03:10 | 37.61842 | -122.37980 | 35 ft | 17 kts | 149° |
| 2026-05-08 03:11 | 37.61721 | -122.37947 | 35 ft | 17 kts | 186° |
| 2026-05-08 03:11 | 37.61607 | -122.38000 | 36 ft | 17 kts | 207° |
| 2026-05-08 03:11 | 37.61500 | -122.38071 | 37 ft | 17 kts | 208° |
| 2026-05-08 03:11 | 37.61396 | -122.38140 | 37 ft | 16 kts | 207° |
| 2026-05-08 03:12 | 37.61292 | -122.38209 | 37 ft | 16 kts | 208° |
| 2026-05-08 03:12 | 37.61189 | -122.38277 | 38 ft | 16 kts | 208° |
| 2026-05-08 03:12 | 37.61084 | -122.38346 | 38 ft | 16 kts | 208° |
| 2026-05-08 03:12 | 37.60984 | -122.38426 | 38 ft | 17 kts | 215° |
| 2026-05-08 03:13 | 37.60901 | -122.38491 | 38 ft | 9 kts | 211° |
| 2026-05-08 03:13 | 37.60891 | -122.38563 | 38 ft | 9 kts | 291° |
| 2026-05-08 03:13 | 37.60920 | -122.38642 | 38 ft | 12 kts | 297° |
| 2026-05-08 03:13 | 37.60967 | -122.38757 | 38 ft | 15 kts | 297° |
| 2026-05-08 03:14 | 37.61018 | -122.38859 | 38 ft | 10 kts | 317° |
| 2026-05-08 03:14 | 37.61092 | -122.38860 | 38 ft | 11 kts | 22° |
| 2026-05-08 03:14 | 37.61161 | -122.38816 | 38 ft | 9 kts | 27° |
| 2026-05-08 03:14 | 37.61194 | -122.38823 | 38 ft | 4 kts | 313° |
| 2026-05-08 03:15 | 37.61209 | -122.38863 | 38 ft | 5 kts | 297° |
| 2026-05-08 03:15 | 37.61221 | -122.38891 | 38 ft | 1 kts | 297° |
| 2026-05-08 03:15 | 37.61224 | -122.38897 | 38 ft | 0 kts | 297° |